Delta Lindsey — WDF5519 — position and weather

sailwx.info

Track history (hours):
 
Tides and Currents Weather Stations Pressure Air Temp Water Temp Dewpoint Dewpoint Depression Visibility Wind Speed Wind Dir Waves Ship Positions

Delta Lindsey

Owner: Baydelta Navigation, Inc., San Francisco, CA. More information available from US FCC via Universal Licensing System and Coast Guard Vessel Documentation Center.

Last reported at 2017-Apr-25 08:28 UTC. Time now 2017-Apr-25 08:49 UTC.
Position N 47°38' W 122°23'.

MMSI: 233246442.

Date/timePositionNaut miles runAvg speedWind from/ knotsBaromVisibWave heightAir tempDewpointWater temp
2017-Apr-25 08:28N 47°38' W 122°23'0 0.0
2017-Apr-25 07:58N 47°38' W 122°23'0 0.0
2017-Apr-25 07:28N 47°38' W 122°23'0 0.0
2017-Apr-25 06:58N 47°38' W 122°23'0 0.0
2017-Apr-25 06:28N 47°38' W 122°23'0 0.0
2017-Apr-25 05:58N 47°38' W 122°23'0 0.0
2017-Apr-25 05:28N 47°38' W 122°23'0 0.0
2017-Apr-25 04:58N 47°38' W 122°23'0 0.0
2017-Apr-25 04:28N 47°38' W 122°23'0 0.0
2017-Apr-25 03:58N 47°38' W 122°23'0 0.0
2017-Apr-25 03:28N 47°38' W 122°23'0 0.0
2017-Apr-25 02:58N 47°38' W 122°23'0 0.0
2017-Apr-25 02:28N 47°38' W 122°23'0 0.0
2017-Apr-25 01:58N 47°38' W 122°23'0 0.0
2017-Apr-25 01:28N 47°38' W 122°23'0 0.0
2017-Apr-25 00:58N 47°38' W 122°23'0 0.0
2017-Apr-25 00:28N 47°38' W 122°23'0 0.0
2017-Apr-24 23:58N 47°38' W 122°23'0 0.0
2017-Apr-24 23:28N 47°38' W 122°23'0 0.0
2017-Apr-24 22:58N 47°38' W 122°23'0 0.0
2017-Apr-24 22:28N 47°38' W 122°23'0 0.0
2017-Apr-24 21:58N 47°38' W 122°23'0 0.0
2017-Apr-24 21:28N 47°38' W 122°23'0 0.0
2017-Apr-24 20:58N 47°38' W 122°23'0 0.0
2017-Apr-24 20:28N 47°38' W 122°23'0 0.0
2017-Apr-24 19:58N 47°38' W 122°23'2 3.6
2017-Apr-24 19:30N 47°38' W 122°25'510.5
2017-Apr-24 19:00N 47°43' W 122°27'611.6
2017-Apr-24 18:30N 47°49' W 122°28'611.6
2017-Apr-24 18:00N 47°54' W 122°30'611.3
2017-Apr-24 17:30N 47°58' W 122°36'15 9.4
2017-Apr-24 15:58N 48°10' W 122°48'510.2
2017-Apr-24 15:30N 48°11' W 122°55'510.0
2017-Apr-24 14:59N 48°14' W 123°02'5 9.4
2017-Apr-24 14:30N 48°17' W 123°06'1413.6
2017-Apr-24 13:30N 48°24' W 122°49'611.7
2017-Apr-24 13:00N 48°29' W 122°44'5 9.3
2017-Apr-24 12:30N 48°31' W 122°38'3 5.0
2017-Apr-24 12:00N 48°31' W 122°34'0 0.3
2017-Apr-24 11:30N 48°31' W 122°34'0 0.6
2017-Apr-24 11:00N 48°31' W 122°35'1 2.6
2017-Apr-24 10:30N 48°31' W 122°37'0 0.0
2017-Apr-24 10:00N 48°31' W 122°37'0 0.0
2017-Apr-24 09:30N 48°31' W 122°37'0 0.0
2017-Apr-24 09:00N 48°31' W 122°37'0 0.0
2017-Apr-24 08:30N 48°31' W 122°37'0 0.0
2017-Apr-24 08:00N 48°31' W 122°37'0 0.0
2017-Apr-24 07:30N 48°31' W 122°37'0 0.0
2017-Apr-24 07:00N 48°31' W 122°37'0 0.0
2017-Apr-24 06:30N 48°31' W 122°37'0 0.0
2017-Apr-24 06:00N 48°31' W 122°37'0 0.0
2017-Apr-24 05:30N 48°31' W 122°37'0 0.0
2017-Apr-24 05:00N 48°31' W 122°37'0 0.1
2017-Apr-24 04:30N 48°31' W 122°37'0 0.1
2017-Apr-24 04:00N 48°31' W 122°37'0 0.0
2017-Apr-24 03:30N 48°31' W 122°37'0 0.0
2017-Apr-24 03:00N 48°31' W 122°37'0 0.0
2017-Apr-24 02:30N 48°31' W 122°37'0 0.0
2017-Apr-24 02:00N 48°31' W 122°37'1 2.8
2017-Apr-24 01:30N 48°31' W 122°35'0 0.1
2017-Apr-24 01:00N 48°31' W 122°35'0 0.2
2017-Apr-24 00:30N 48°31' W 122°35'2 3.4
2017-Apr-24 00:00N 48°32' W 122°34'2 4.1
2017-Apr-23 23:30N 48°31' W 122°37'0 0.3
2017-Apr-23 22:56N 48°31' W 122°37'0 0.0
2017-Apr-23 22:30N 48°31' W 122°37'0 0.0
2017-Apr-23 21:58N 48°31' W 122°37'0 0.0
2017-Apr-23 21:28N 48°31' W 122°37'0 0.0
2017-Apr-23 20:58N 48°31' W 122°37'0 0.0
2017-Apr-23 20:28N 48°31' W 122°37'0 0.0
2017-Apr-23 19:58N 48°31' W 122°37'0 0.0
2017-Apr-23 19:30N 48°31' W 122°37'2 3.3
2017-Apr-23 19:00N 48°31' W 122°34'2 4.7
2017-Apr-23 18:30N 48°31' W 122°38'4 7.8
2017-Apr-23 18:01N 48°31' W 122°44'510.0
2017-Apr-23 17:30N 48°36' W 122°45'510.7
2017-Apr-23 17:00N 48°42' W 122°44'8 4.7
2017-Apr-23 15:19N 48°50' W 122°43'1 2.0
2017-Apr-23 14:41N 48°48' W 122°44'710.4
2017-Apr-23 14:00N 48°41' W 122°42'611.6
2017-Apr-23 13:30N 48°37' W 122°37'510.4
2017-Apr-23 13:00N 48°32' W 122°35'1 1.6
2017-Apr-23 12:31N 48°31' W 122°36'0 0.1
2017-Apr-23 12:00N 48°31' W 122°36'0 0.0
2017-Apr-23 11:30N 48°31' W 122°36'1 1.5
2017-Apr-23 11:00N 48°31' W 122°38'1 1.2
2017-Apr-23 10:30N 48°31' W 122°37'0 0.2
2017-Apr-23 09:58N 48°31' W 122°37'0 0.0
2017-Apr-23 09:28N 48°31' W 122°37'0 0.0
2017-Apr-23 08:58N 48°31' W 122°37'0 0.0
2017-Apr-23 08:28N 48°31' W 122°37'0 0.0
2017-Apr-23 07:52N 48°31' W 122°37'0 0.0
2017-Apr-23 07:28N 48°31' W 122°37'0 0.0
2017-Apr-23 06:58N 48°31' W 122°37'0 0.0
2017-Apr-23 06:28N 48°31' W 122°37'0 0.0
2017-Apr-23 05:52N 48°31' W 122°37'0 0.0
2017-Apr-23 05:28N 48°31' W 122°37'0 0.0
2017-Apr-23 04:58N 48°31' W 122°37'0 0.0
2017-Apr-23 04:28N 48°31' W 122°37'0 0.0
2017-Apr-23 03:58N 48°31' W 122°37'0 0.0
2017-Apr-23 03:28N 48°31' W 122°37'0 0.0
2017-Apr-23 02:58N 48°31' W 122°37'0 0.0
2017-Apr-23 02:28N 48°31' W 122°37'0 0.0
2017-Apr-23 01:58N 48°31' W 122°37'0 0.0
2017-Apr-23 01:28N 48°31' W 122°37'0 0.0
2017-Apr-23 00:58N 48°31' W 122°37'0 0.0
2017-Apr-23 00:28N 48°31' W 122°37'0 0.0
2017-Apr-22 23:58N 48°31' W 122°37'0 0.0
2017-Apr-22 23:28N 48°31' W 122°37'0 0.0
2017-Apr-22 22:52N 48°31' W 122°37'0 0.0
2017-Apr-22 22:22N 48°31' W 122°37'0 0.0
2017-Apr-22 21:59N 48°31' W 122°37'2 4.9
2017-Apr-22 21:30N 48°33' W 122°35'4 8.8
2017-Apr-22 21:00N 48°37' W 122°38'4 8.6
2017-Apr-22 20:30N 48°41' W 122°41'8 7.9
2017-Apr-22 19:28N 48°49' W 122°43'3 3.7
2017-Apr-22 18:32N 48°52' W 122°46'0 5.1
2017-Apr-22 18:27N 48°51' W 122°46'7 1.1
2017-Apr-22 11:35N 48°44' W 122°45'110.7
2017-Apr-22 11:30N 48°43' W 122°44'510.0
2017-Apr-22 11:00N 48°39' W 122°40'4 8.3
2017-Apr-22 10:31N 48°37' W 122°35'1 2.8
2017-Apr-22 10:00N 48°36' W 122°36'0 0.3
2017-Apr-22 09:30N 48°35' W 122°36'0 0.1
2017-Apr-22 08:55N 48°35' W 122°36'0 0.1
2017-Apr-22 08:28N 48°35' W 122°36'0 0.1
2017-Apr-22 07:58N 48°35' W 122°36'0 0.0
2017-Apr-22 07:28N 48°35' W 122°36'0 0.0
2017-Apr-22 06:58N 48°35' W 122°36'0 0.0
2017-Apr-22 06:25N 48°35' W 122°36'0 0.0
2017-Apr-22 05:58N 48°35' W 122°36'1 2.8
2017-Apr-22 05:30N 48°36' W 122°37'611.1
2017-Apr-22 05:00N 48°41' W 122°42'8 4.3
2017-Apr-22 03:14N 48°49' W 122°43'0 1.2
2017-Apr-22 02:57N 48°48' W 122°44'511.0
2017-Apr-22 02:30N 48°43' W 122°44'611.6
2017-Apr-22 02:00N 48°39' W 122°38'1 1.6
2017-Apr-22 01:30N 48°39' W 122°40'3 6.2
2017-Apr-22 01:00N 48°38' W 122°44'4 7.7
2017-Apr-22 00:30N 48°34' W 122°45'4 8.2
2017-Apr-22 00:00N 48°30' W 122°45'3 6.7
2017-Apr-21 23:30N 48°27' W 122°45'3 6.5
2017-Apr-21 23:00N 48°30' W 122°43'4 8.0
2017-Apr-21 22:30N 48°31' W 122°38'1 1.6
2017-Apr-21 21:54N 48°31' W 122°36'0 0.6
2017-Apr-21 21:26N 48°31' W 122°37'0 0.5
2017-Apr-21 21:00N 48°31' W 122°37'0 0.1
2017-Apr-21 20:18N 48°31' W 122°36'0 0.0
2017-Apr-21 20:00N 48°31' W 122°36'0 0.1
2017-Apr-21 19:23N 48°31' W 122°37'0 0.0
2017-Apr-21 18:47N 48°31' W 122°37'0 0.0
2017-Apr-21 18:29N 48°31' W 122°37'1 1.6
2017-Apr-21 18:01N 48°31' W 122°36'0 0.0
2017-Apr-21 17:31N 48°31' W 122°36'0 0.0
2017-Apr-21 17:01N 48°31' W 122°36'0 0.0
2017-Apr-21 16:31N 48°31' W 122°36'0 0.0
2017-Apr-21 16:01N 48°31' W 122°36'0 0.0
2017-Apr-21 15:31N 48°31' W 122°36'0 0.0
2017-Apr-21 15:01N 48°31' W 122°36'0 0.1
2017-Apr-21 14:30N 48°31' W 122°36'1 0.7
2017-Apr-21 13:30N 48°31' W 122°35'1 1.3
2017-Apr-21 13:00N 48°31' W 122°35'2 3.9
2017-Apr-21 12:30N 48°33' W 122°34'1 1.2
2017-Apr-21 12:00N 48°32' W 122°34'2 3.8
2017-Apr-21 11:30N 48°31' W 122°35'0 0.1
2017-Apr-21 11:00N 48°31' W 122°35'1 1.3
2017-Apr-21 10:30N 48°31' W 122°36'0 0.0
2017-Apr-21 10:00N 48°31' W 122°36'0 0.0
2017-Apr-21 09:30N 48°31' W 122°36'0 0.0
2017-Apr-21 09:00N 48°31' W 122°36'0 0.0
2017-Apr-21 08:30N 48°31' W 122°36'0 0.0
2017-Apr-21 07:48N 48°31' W 122°36'0 0.0
2017-Apr-21 07:24N 48°31' W 122°36'0 0.0
2017-Apr-21 07:00N 48°31' W 122°36'0 0.0
2017-Apr-21 06:30N 48°31' W 122°36'0 0.0
2017-Apr-21 06:00N 48°31' W 122°36'0 0.0
2017-Apr-21 05:30N 48°31' W 122°36'0 0.1
2017-Apr-21 04:54N 48°31' W 122°36'1 2.0
2017-Apr-21 04:30N 48°31' W 122°35'5 9.3
2017-Apr-21 04:00N 48°36' W 122°34'5 9.9
2017-Apr-21 03:30N 48°41' W 122°33'4 8.9
2017-Apr-21 03:00N 48°45' W 122°30'0 0.1
2017-Apr-21 02:28N 48°45' W 122°30'0 0.0
2017-Apr-21 01:52N 48°45' W 122°30'0 0.0
2017-Apr-21 01:28N 48°45' W 122°30'0 0.0
2017-Apr-21 00:58N 48°45' W 122°30'0 0.0
2017-Apr-21 00:25N 48°45' W 122°30'0 0.0
2017-Apr-20 23:58N 48°45' W 122°30'0 0.0
2017-Apr-20 23:28N 48°45' W 122°30'0 0.0
2017-Apr-20 22:55N 48°45' W 122°30'0 0.0
2017-Apr-20 22:28N 48°45' W 122°30'0 0.0
2017-Apr-20 21:55N 48°45' W 122°30'0 0.0
2017-Apr-20 21:28N 48°45' W 122°30'0 0.0
2017-Apr-20 21:00N 48°45' W 122°30'0 0.0
2017-Apr-20 20:30N 48°45' W 122°30'0 0.0
2017-Apr-20 20:00N 48°45' W 122°30'0 0.0
2017-Apr-20 19:30N 48°45' W 122°30'4 7.7
2017-Apr-20 19:00N 48°42' W 122°33'511.0
2017-Apr-20 18:30N 48°36' W 122°35'5 9.7
2017-Apr-20 18:01N 48°31' W 122°35'1 1.9
2017-Apr-20 17:25N 48°31' W 122°37'0 0.0
2017-Apr-20 16:55N 48°31' W 122°37'0 0.0
2017-Apr-20 16:25N 48°31' W 122°37'0 0.0
2017-Apr-20 15:55N 48°31' W 122°37'0 0.0
2017-Apr-20 15:25N 48°31' W 122°37'0 0.0
2017-Apr-20 14:55N 48°31' W 122°37'0 0.3
2017-Apr-20 14:00N 48°31' W 122°37'4 8.6
2017-Apr-20 13:30N 48°30' W 122°43'510.2
2017-Apr-20 13:00N 48°25' W 122°47'510.4
2017-Apr-20 12:30N 48°22' W 122°53'610.5
2017-Apr-20 11:57N 48°19' W 123°00'410.1
2017-Apr-20 11:30N 48°17' W 123°06'611.7
2017-Apr-20 10:57N 48°20' W 122°58'613.2
2017-Apr-20 10:31N 48°24' W 122°51'611.6
2017-Apr-20 10:00N 48°28' W 122°45'4 8.7
2017-Apr-20 09:30N 48°31' W 122°41'3 6.6
2017-Apr-20 09:00N 48°32' W 122°36'1 2.8
2017-Apr-20 08:30N 48°30' W 122°34'0 0.6
2017-Apr-20 08:00N 48°31' W 122°35'0 0.0
2017-Apr-20 07:30N 48°31' W 122°35'0 0.5
2017-Apr-20 07:00N 48°31' W 122°35'1 2.3
2017-Apr-20 06:30N 48°31' W 122°34'2 3.6
2017-Apr-20 06:00N 48°31' W 122°37'0 0.0
2017-Apr-20 05:21N 48°31' W 122°37'0 0.0
2017-Apr-20 04:57N 48°31' W 122°37'0 0.0
2017-Apr-20 04:27N 48°31' W 122°37'0 0.0
2017-Apr-20 03:57N 48°31' W 122°37'0 0.0
2017-Apr-20 03:27N 48°31' W 122°37'0 0.0
2017-Apr-20 02:57N 48°31' W 122°37'0 0.0
2017-Apr-20 02:27N 48°31' W 122°37'0 0.0
2017-Apr-20 01:51N 48°31' W 122°37'0 0.0
2017-Apr-20 01:27N 48°31' W 122°37'0 0.0
2017-Apr-20 00:57N 48°31' W 122°37'0 0.0
2017-Apr-20 00:27N 48°31' W 122°37'0 0.0
2017-Apr-19 23:57N 48°31' W 122°37'0 0.0
2017-Apr-19 23:27N 48°31' W 122°37'0 0.0
2017-Apr-19 23:00N 48°31' W 122°37'0 0.4
2017-Apr-19 22:30N 48°31' W 122°37'0 0.2
2017-Apr-19 22:00N 48°31' W 122°37'0 0.9
2017-Apr-19 21:30N 48°31' W 122°36'0 0.3
2017-Apr-19 21:00N 48°31' W 122°37'0 0.0
2017-Apr-19 20:30N 48°31' W 122°37'0 0.0
2017-Apr-19 20:00N 48°31' W 122°37'0 0.0
2017-Apr-19 19:30N 48°31' W 122°37'0 0.0
2017-Apr-19 19:00N 48°31' W 122°37'0 0.0
2017-Apr-19 18:30N 48°31' W 122°37'0 0.0
2017-Apr-19 18:00N 48°31' W 122°37'0 0.4
2017-Apr-19 17:30N 48°31' W 122°37'0 0.4
2017-Apr-19 16:59N 48°31' W 122°37'0 0.0
2017-Apr-19 16:29N 48°31' W 122°37'0 0.0
2017-Apr-19 15:59N 48°31' W 122°37'0 0.0
2017-Apr-19 15:29N 48°31' W 122°37'0 0.0
2017-Apr-19 14:59N 48°31' W 122°37'0 0.0
2017-Apr-19 14:29N 48°31' W 122°37'0 0.0
2017-Apr-19 13:23N 48°31' W 122°37'0 0.0
2017-Apr-19 12:59N 48°31' W 122°37'0 0.0
2017-Apr-19 12:29N 48°31' W 122°37'0 0.0
2017-Apr-19 11:59N 48°31' W 122°37'0 0.0
2017-Apr-19 11:29N 48°31' W 122°37'0 0.0
2017-Apr-19 10:47N 48°31' W 122°37'0 0.0
2017-Apr-19 10:29N 48°31' W 122°37'0 0.0
2017-Apr-19 09:59N 48°31' W 122°37'0 0.0
2017-Apr-19 09:23N 48°31' W 122°37'0 0.0
2017-Apr-19 08:59N 48°31' W 122°37'0 0.0
2017-Apr-19 08:29N 48°31' W 122°37'0 0.0
2017-Apr-19 07:59N 48°31' W 122°37'0 0.0
2017-Apr-19 07:29N 48°31' W 122°37'0 0.0
2017-Apr-19 06:47N 48°31' W 122°37'0 0.0
2017-Apr-19 06:29N 48°31' W 122°37'0 0.0
2017-Apr-19 05:41N 48°31' W 122°37'0 0.0
2017-Apr-19 05:29N 48°31' W 122°37'0 0.0
2017-Apr-19 04:59N 48°31' W 122°37'0 0.0
2017-Apr-19 04:29N 48°31' W 122°37'0 0.0
2017-Apr-19 03:59N 48°31' W 122°37'0 0.0
2017-Apr-19 03:29N 48°31' W 122°37'0 0.0
2017-Apr-19 03:00N 48°31' W 122°37'0 0.0
2017-Apr-19 02:30N 48°31' W 122°37'0 0.2
2017-Apr-19 02:00N 48°31' W 122°37'2 3.3
2017-Apr-19 01:30N 48°31' W 122°34'0 1.0
2017-Apr-19 01:00N 48°31' W 122°35'0 0.1
2017-Apr-19 00:30N 48°31' W 122°35'1 2.5
2017-Apr-19 00:00N 48°31' W 122°36'0 0.8
2017-Apr-18 23:30N 48°31' W 122°37'0 0.1
2017-Apr-18 22:59N 48°31' W 122°37'0 0.4
2017-Apr-18 22:16N 48°31' W 122°37'0 0.0
2017-Apr-18 21:58N 48°31' W 122°37'0 0.0
2017-Apr-18 21:28N 48°31' W 122°37'0 0.0
2017-Apr-18 20:58N 48°31' W 122°37'0 0.0
2017-Apr-18 08:40N 48°31' W 122°37'0 0.0
2017-Apr-18 08:29N 48°31' W 122°37'1 2.0
2017-Apr-18 07:44N 48°31' W 122°35'0 0.5
2017-Apr-18 07:27N 48°31' W 122°35'1 1.7
2017-Apr-18 07:00N 48°31' W 122°34'2 4.5
2017-Apr-18 06:30N 48°34' W 122°35'4 5.6
2017-Apr-18 05:51N 48°31' W 122°39'0 0.3
2017-Apr-18 05:06N 48°31' W 122°39'0 0.0
2017-Apr-18 04:45N 48°31' W 122°39'0 0.0
2017-Apr-18 04:24N 48°31' W 122°39'0 0.0
2017-Apr-18 03:51N 48°31' W 122°39'0 0.0
2017-Apr-18 03:30N 48°31' W 122°39'0 0.0
2017-Apr-18 02:54N 48°31' W 122°39'2 4.1
2017-Apr-18 02:30N 48°31' W 122°41'611.6
2017-Apr-18 02:00N 48°25' W 122°44'1310.5
2017-Apr-18 00:44N 48°13' W 122°47'1610.3
2017-Apr-17 23:14N 47°59' W 122°35'211.0
2017-Apr-17 23:00N 47°57' W 122°33'510.8
2017-Apr-17 22:31N 47°53' W 122°28'611.3
2017-Apr-17 22:00N 47°47' W 122°26'611.1
2017-Apr-17 21:31N 47°42' W 122°26'5 9.9
2017-Apr-17 21:00N 47°37' W 122°24'3 6.2
2017-Apr-17 20:31N 47°35' W 122°21'1 1.0
2017-Apr-17 20:01N 47°36' W 122°21'1 1.9
2017-Apr-17 19:30N 47°36' W 122°22'1 1.8
2017-Apr-17 19:00N 47°36' W 122°21'0 0.8
2017-Apr-17 18:30N 47°35' W 122°21'0 0.2
2017-Apr-17 18:00N 47°35' W 122°21'0 0.5
2017-Apr-17 17:30N 47°36' W 122°21'1 1.5
2017-Apr-17 17:00N 47°35' W 122°21'0 0.1
2017-Apr-17 16:29N 47°35' W 122°21'0 0.1
2017-Apr-17 15:59N 47°35' W 122°21'0 0.0
2017-Apr-17 15:28N 47°35' W 122°21'0 0.0
2017-Apr-17 14:58N 47°35' W 122°21'0 0.4
2017-Apr-17 14:00N 47°35' W 122°21'2 3.3
2017-Apr-17 13:30N 47°37' W 122°22'0 1.0
2017-Apr-17 13:00N 47°37' W 122°22'1 1.7
2017-Apr-17 12:28N 47°38' W 122°23'0 0.0
2017-Apr-17 11:58N 47°38' W 122°23'0 0.0
2017-Apr-17 11:29N 47°38' W 122°23'0 0.0
2017-Apr-17 10:58N 47°38' W 122°23'0 0.0
2017-Apr-17 10:29N 47°38' W 122°23'0 0.0
2017-Apr-17 09:58N 47°38' W 122°23'0 0.0
2017-Apr-17 09:30N 47°38' W 122°23'3 6.2
2017-Apr-17 09:00N 47°39' W 122°27'511.0
2017-Apr-17 08:31N 47°44' W 122°27'611.4
2017-Apr-17 07:59N 47°50' W 122°28'2310.3
2017-Apr-17 05:48N 48°10' W 122°45'311.2
2017-Apr-17 05:30N 48°12' W 122°49'1011.3
2017-Apr-17 04:39N 48°22' W 122°46'210.7
2017-Apr-17 04:28N 48°24' W 122°45'510.6
2017-Apr-17 04:01N 48°28' W 122°45'5 9.3
2017-Apr-17 03:30N 48°33' W 122°45'4 8.4
2017-Apr-17 03:00N 48°37' W 122°45'5 9.2
2017-Apr-17 02:30N 48°42' W 122°44'510.1
2017-Apr-17 01:59N 48°47' W 122°44'2 1.8
2017-Apr-17 00:47N 48°49' W 122°43'0 1.7
2017-Apr-17 00:29N 48°49' W 122°44'2 4.2
2017-Apr-16 23:57N 48°47' W 122°46'4 8.1
2017-Apr-16 23:30N 48°44' W 122°44'5 9.6
2017-Apr-16 23:00N 48°39' W 122°43'4 8.2
2017-Apr-16 22:31N 48°35' W 122°45'4 7.6
2017-Apr-16 22:01N 48°32' W 122°43'4 8.9
2017-Apr-16 21:30N 48°31' W 122°37'0 0.2
2017-Apr-16 20:58N 48°31' W 122°37'0 0.0
2017-Apr-16 20:28N 48°31' W 122°37'0 0.0
2017-Apr-16 19:58N 48°31' W 122°37'0 0.0
2017-Apr-16 19:28N 48°31' W 122°37'0 0.0
2017-Apr-16 18:52N 48°31' W 122°37'0 0.0
2017-Apr-16 18:28N 48°31' W 122°37'0 0.0
2017-Apr-16 17:58N 48°31' W 122°37'0 0.0
2017-Apr-16 17:28N 48°31' W 122°37'0 0.0
2017-Apr-16 16:58N 48°31' W 122°37'0 0.0
2017-Apr-16 16:28N 48°31' W 122°37'0 0.0
2017-Apr-16 15:58N 48°31' W 122°37'0 0.0
2017-Apr-16 15:28N 48°31' W 122°37'0 0.0
2017-Apr-16 14:58N 48°31' W 122°37'0 0.0
2017-Apr-16 14:22N 48°31' W 122°37'0 0.0
2017-Apr-16 13:28N 48°31' W 122°37'0 0.0
2017-Apr-16 12:52N 48°31' W 122°37'0 0.0
2017-Apr-16 12:28N 48°31' W 122°37'0 0.0
2017-Apr-16 11:58N 48°31' W 122°37'0 0.0
2017-Apr-16 11:28N 48°31' W 122°37'0 0.0
2017-Apr-16 10:58N 48°31' W 122°37'0 0.0
2017-Apr-16 10:30N 48°31' W 122°37'0 0.0
2017-Apr-16 10:00N 48°31' W 122°37'0 0.0
2017-Apr-16 09:30N 48°31' W 122°37'0 0.0
2017-Apr-16 09:00N 48°31' W 122°37'0 0.0
2017-Apr-16 08:30N 48°31' W 122°37'0 0.0
2017-Apr-16 08:00N 48°31' W 122°37'0 0.0
2017-Apr-16 07:30N 48°31' W 122°37'0 0.0
2017-Apr-16 07:00N 48°31' W 122°37'0 0.0
2017-Apr-16 06:30N 48°31' W 122°37'0 0.0
2017-Apr-16 06:00N 48°31' W 122°37'1 2.6
2017-Apr-16 05:30N 48°31' W 122°35'0 0.3
2017-Apr-16 05:00N 48°31' W 122°35'0 0.5
2017-Apr-16 04:30N 48°31' W 122°35'1 2.4
2017-Apr-16 04:00N 48°32' W 122°36'4 8.7
2017-Apr-16 03:30N 48°30' W 122°43'711.8
2017-Apr-16 02:55N 48°23' W 122°44'24 8.9
2017-Apr-16 00:15N 48°00' W 122°36'2 9.4
2017-Apr-16 00:00N 47°58' W 122°34'5 9.7
2017-Apr-15 23:31N 47°55' W 122°29'510.8
2017-Apr-15 23:00N 47°50' W 122°27'510.8
2017-Apr-15 22:30N 47°45' W 122°26'510.7
2017-Apr-15 22:01N 47°39' W 122°26'3 5.8
2017-Apr-15 21:31N 47°38' W 122°23'0 0.0
2017-Apr-15 21:01N 47°38' W 122°23'2 3.1
2017-Apr-15 20:30N 47°37' W 122°21'2 3.8
2017-Apr-15 20:00N 47°35' W 122°21'0 0.2
2017-Apr-15 19:30N 47°35' W 122°21'0 0.0
2017-Apr-15 19:00N 47°35' W 122°21'0 0.1
2017-Apr-15 18:30N 47°35' W 122°21'2 3.5
2017-Apr-15 18:01N 47°37' W 122°21'2 3.1
2017-Apr-15 17:29N 47°38' W 122°23'0 0.0
2017-Apr-15 16:59N 47°38' W 122°23'0 0.0
2017-Apr-15 16:29N 47°38' W 122°23'0 0.0
2017-Apr-15 15:59N 47°38' W 122°23'0 0.0
2017-Apr-15 15:29N 47°38' W 122°23'0 0.0
2017-Apr-15 15:00N 47°38' W 122°23'0 0.0
2017-Apr-15 14:30N 47°38' W 122°23'0 0.0
2017-Apr-15 13:30N 47°38' W 122°23'0 0.0
2017-Apr-15 12:59N 47°38' W 122°23'0 0.0
2017-Apr-15 12:30N 47°38' W 122°23'0 0.0
2017-Apr-15 11:57N 47°38' W 122°23'0 0.0
2017-Apr-15 11:29N 47°38' W 122°23'0 0.0
2017-Apr-15 11:00N 47°38' W 122°23'4 8.8
2017-Apr-15 10:31N 47°34' W 122°26'510.9
2017-Apr-15 10:01N 47°29' W 122°24'510.8
2017-Apr-15 09:30N 47°24' W 122°21'510.1
2017-Apr-15 09:00N 47°20' W 122°26'  
Track history (hours):
 
Tides and Currents Weather Stations Pressure Air Temp Water Temp Dewpoint Dewpoint Depression Visibility Wind Speed Wind Dir Waves Ship Positions

Delta Lindsey

Owner: Baydelta Navigation, Inc., San Francisco, CA. More information available from US FCC via Universal Licensing System and Coast Guard Vessel Documentation Center.

Last reported at 2017-Apr-25 08:28 UTC. Time now 2017-Apr-25 08:49 UTC.
Position N 47°38' W 122°23'.

MMSI: 233246442.

Date/timePositionNaut miles runAvg speedWind from/ knotsBaromVisibWave heightAir tempDewpointWater temp
2017-Apr-25 08:28N 47°38' W 122°23'0 0.0
2017-Apr-25 07:58N 47°38' W 122°23'0 0.0
2017-Apr-25 07:28N 47°38' W 122°23'0 0.0
2017-Apr-25 06:58N 47°38' W 122°23'0 0.0
2017-Apr-25 06:28N 47°38' W 122°23'0 0.0
2017-Apr-25 05:58N 47°38' W 122°23'0 0.0
2017-Apr-25 05:28N 47°38' W 122°23'0 0.0
2017-Apr-25 04:58N 47°38' W 122°23'0 0.0
2017-Apr-25 04:28N 47°38' W 122°23'0 0.0
2017-Apr-25 03:58N 47°38' W 122°23'0 0.0
2017-Apr-25 03:28N 47°38' W 122°23'0 0.0
2017-Apr-25 02:58N 47°38' W 122°23'0 0.0
2017-Apr-25 02:28N 47°38' W 122°23'0 0.0
2017-Apr-25 01:58N 47°38' W 122°23'0 0.0
2017-Apr-25 01:28N 47°38' W 122°23'0 0.0
2017-Apr-25 00:58N 47°38' W 122°23'0 0.0
2017-Apr-25 00:28N 47°38' W 122°23'0 0.0
2017-Apr-24 23:58N 47°38' W 122°23'0 0.0
2017-Apr-24 23:28N 47°38' W 122°23'0 0.0
2017-Apr-24 22:58N 47°38' W 122°23'0 0.0
2017-Apr-24 22:28N 47°38' W 122°23'0 0.0
2017-Apr-24 21:58N 47°38' W 122°23'0 0.0
2017-Apr-24 21:28N 47°38' W 122°23'0 0.0
2017-Apr-24 20:58N 47°38' W 122°23'0 0.0
2017-Apr-24 20:28N 47°38' W 122°23'0 0.0
2017-Apr-24 19:58N 47°38' W 122°23'2 3.6
2017-Apr-24 19:30N 47°38' W 122°25'510.5
2017-Apr-24 19:00N 47°43' W 122°27'611.6
2017-Apr-24 18:30N 47°49' W 122°28'611.6
2017-Apr-24 18:00N 47°54' W 122°30'611.3
2017-Apr-24 17:30N 47°58' W 122°36'15 9.4
2017-Apr-24 15:58N 48°10' W 122°48'510.2
2017-Apr-24 15:30N 48°11' W 122°55'510.0
2017-Apr-24 14:59N 48°14' W 123°02'5 9.4
2017-Apr-24 14:30N 48°17' W 123°06'1413.6
2017-Apr-24 13:30N 48°24' W 122°49'611.7
2017-Apr-24 13:00N 48°29' W 122°44'5 9.3
2017-Apr-24 12:30N 48°31' W 122°38'3 5.0
2017-Apr-24 12:00N 48°31' W 122°34'0 0.3
2017-Apr-24 11:30N 48°31' W 122°34'0 0.6
2017-Apr-24 11:00N 48°31' W 122°35'1 2.6
2017-Apr-24 10:30N 48°31' W 122°37'0 0.0
2017-Apr-24 10:00N 48°31' W 122°37'0 0.0
2017-Apr-24 09:30N 48°31' W 122°37'0 0.0
2017-Apr-24 09:00N 48°31' W 122°37'0 0.0
2017-Apr-24 08:30N 48°31' W 122°37'0 0.0
2017-Apr-24 08:00N 48°31' W 122°37'0 0.0
2017-Apr-24 07:30N 48°31' W 122°37'0 0.0
2017-Apr-24 07:00N 48°31' W 122°37'0 0.0
2017-Apr-24 06:30N 48°31' W 122°37'0 0.0
2017-Apr-24 06:00N 48°31' W 122°37'0 0.0
2017-Apr-24 05:30N 48°31' W 122°37'0 0.0
2017-Apr-24 05:00N 48°31' W 122°37'0 0.1
2017-Apr-24 04:30N 48°31' W 122°37'0 0.1
2017-Apr-24 04:00N 48°31' W 122°37'0 0.0
2017-Apr-24 03:30N 48°31' W 122°37'0 0.0
2017-Apr-24 03:00N 48°31' W 122°37'0 0.0
2017-Apr-24 02:30N 48°31' W 122°37'0 0.0
2017-Apr-24 02:00N 48°31' W 122°37'1 2.8
2017-Apr-24 01:30N 48°31' W 122°35'0 0.1
2017-Apr-24 01:00N 48°31' W 122°35'0 0.2
2017-Apr-24 00:30N 48°31' W 122°35'2 3.4
2017-Apr-24 00:00N 48°32' W 122°34'2 4.1
2017-Apr-23 23:30N 48°31' W 122°37'0 0.3
2017-Apr-23 22:56N 48°31' W 122°37'0 0.0
2017-Apr-23 22:30N 48°31' W 122°37'0 0.0
2017-Apr-23 21:58N 48°31' W 122°37'0 0.0
2017-Apr-23 21:28N 48°31' W 122°37'0 0.0
2017-Apr-23 20:58N 48°31' W 122°37'0 0.0
2017-Apr-23 20:28N 48°31' W 122°37'0 0.0
2017-Apr-23 19:58N 48°31' W 122°37'0 0.0
2017-Apr-23 19:30N 48°31' W 122°37'2 3.3
2017-Apr-23 19:00N 48°31' W 122°34'2 4.7
2017-Apr-23 18:30N 48°31' W 122°38'4 7.8
2017-Apr-23 18:01N 48°31' W 122°44'510.0
2017-Apr-23 17:30N 48°36' W 122°45'510.7
2017-Apr-23 17:00N 48°42' W 122°44'8 4.7
2017-Apr-23 15:19N 48°50' W 122°43'1 2.0
2017-Apr-23 14:41N 48°48' W 122°44'710.4
2017-Apr-23 14:00N 48°41' W 122°42'611.6
2017-Apr-23 13:30N 48°37' W 122°37'510.4
2017-Apr-23 13:00N 48°32' W 122°35'1 1.6
2017-Apr-23 12:31N 48°31' W 122°36'0 0.1
2017-Apr-23 12:00N 48°31' W 122°36'0 0.0
2017-Apr-23 11:30N 48°31' W 122°36'1 1.5
2017-Apr-23 11:00N 48°31' W 122°38'1 1.2
2017-Apr-23 10:30N 48°31' W 122°37'0 0.2
2017-Apr-23 09:58N 48°31' W 122°37'0 0.0
2017-Apr-23 09:28N 48°31' W 122°37'0 0.0
2017-Apr-23 08:58N 48°31' W 122°37'0 0.0
2017-Apr-23 08:28N 48°31' W 122°37'0 0.0
2017-Apr-23 07:52N 48°31' W 122°37'0 0.0
2017-Apr-23 07:28N 48°31' W 122°37'0 0.0
2017-Apr-23 06:58N 48°31' W 122°37'0 0.0
2017-Apr-23 06:28N 48°31' W 122°37'0 0.0
2017-Apr-23 05:52N 48°31' W 122°37'0 0.0
2017-Apr-23 05:28N 48°31' W 122°37'0 0.0
2017-Apr-23 04:58N 48°31' W 122°37'0 0.0
2017-Apr-23 04:28N 48°31' W 122°37'0 0.0
2017-Apr-23 03:58N 48°31' W 122°37'0 0.0
2017-Apr-23 03:28N 48°31' W 122°37'0 0.0
2017-Apr-23 02:58N 48°31' W 122°37'0 0.0
2017-Apr-23 02:28N 48°31' W 122°37'0 0.0
2017-Apr-23 01:58N 48°31' W 122°37'0 0.0
2017-Apr-23 01:28N 48°31' W 122°37'0 0.0
2017-Apr-23 00:58N 48°31' W 122°37'0 0.0
2017-Apr-23 00:28N 48°31' W 122°37'0 0.0
2017-Apr-22 23:58N 48°31' W 122°37'0 0.0
2017-Apr-22 23:28N 48°31' W 122°37'0 0.0
2017-Apr-22 22:52N 48°31' W 122°37'0 0.0
2017-Apr-22 22:22N 48°31' W 122°37'0 0.0
2017-Apr-22 21:59N 48°31' W 122°37'2 4.9
2017-Apr-22 21:30N 48°33' W 122°35'4 8.8
2017-Apr-22 21:00N 48°37' W 122°38'4 8.6
2017-Apr-22 20:30N 48°41' W 122°41'8 7.9
2017-Apr-22 19:28N 48°49' W 122°43'3 3.7
2017-Apr-22 18:32N 48°52' W 122°46'0 5.1
2017-Apr-22 18:27N 48°51' W 122°46'7 1.1
2017-Apr-22 11:35N 48°44' W 122°45'110.7
2017-Apr-22 11:30N 48°43' W 122°44'510.0
2017-Apr-22 11:00N 48°39' W 122°40'4 8.3
2017-Apr-22 10:31N 48°37' W 122°35'1 2.8
2017-Apr-22 10:00N 48°36' W 122°36'0 0.3
2017-Apr-22 09:30N 48°35' W 122°36'0 0.1
2017-Apr-22 08:55N 48°35' W 122°36'0 0.1
2017-Apr-22 08:28N 48°35' W 122°36'0 0.1
2017-Apr-22 07:58N 48°35' W 122°36'0 0.0
2017-Apr-22 07:28N 48°35' W 122°36'0 0.0
2017-Apr-22 06:58N 48°35' W 122°36'0 0.0
2017-Apr-22 06:25N 48°35' W 122°36'0 0.0
2017-Apr-22 05:58N 48°35' W 122°36'1 2.8
2017-Apr-22 05:30N 48°36' W 122°37'611.1
2017-Apr-22 05:00N 48°41' W 122°42'8 4.3
2017-Apr-22 03:14N 48°49' W 122°43'0 1.2
2017-Apr-22 02:57N 48°48' W 122°44'511.0
2017-Apr-22 02:30N 48°43' W 122°44'611.6
2017-Apr-22 02:00N 48°39' W 122°38'1 1.6
2017-Apr-22 01:30N 48°39' W 122°40'3 6.2
2017-Apr-22 01:00N 48°38' W 122°44'4 7.7
2017-Apr-22 00:30N 48°34' W 122°45'4 8.2
2017-Apr-22 00:00N 48°30' W 122°45'3 6.7
2017-Apr-21 23:30N 48°27' W 122°45'3 6.5
2017-Apr-21 23:00N 48°30' W 122°43'4 8.0
2017-Apr-21 22:30N 48°31' W 122°38'1 1.6
2017-Apr-21 21:54N 48°31' W 122°36'0 0.6
2017-Apr-21 21:26N 48°31' W 122°37'0 0.5
2017-Apr-21 21:00N 48°31' W 122°37'0 0.1
2017-Apr-21 20:18N 48°31' W 122°36'0 0.0
2017-Apr-21 20:00N 48°31' W 122°36'0 0.1
2017-Apr-21 19:23N 48°31' W 122°37'0 0.0
2017-Apr-21 18:47N 48°31' W 122°37'0 0.0
2017-Apr-21 18:29N 48°31' W 122°37'1 1.6
2017-Apr-21 18:01N 48°31' W 122°36'0 0.0
2017-Apr-21 17:31N 48°31' W 122°36'0 0.0
2017-Apr-21 17:01N 48°31' W 122°36'0 0.0
2017-Apr-21 16:31N 48°31' W 122°36'0 0.0
2017-Apr-21 16:01N 48°31' W 122°36'0 0.0
2017-Apr-21 15:31N 48°31' W 122°36'0 0.0
2017-Apr-21 15:01N 48°31' W 122°36'0 0.1
2017-Apr-21 14:30N 48°31' W 122°36'1 0.7
2017-Apr-21 13:30N 48°31' W 122°35'1 1.3
2017-Apr-21 13:00N 48°31' W 122°35'2 3.9
2017-Apr-21 12:30N 48°33' W 122°34'1 1.2
2017-Apr-21 12:00N 48°32' W 122°34'2 3.8
2017-Apr-21 11:30N 48°31' W 122°35'0 0.1
2017-Apr-21 11:00N 48°31' W 122°35'1 1.3
2017-Apr-21 10:30N 48°31' W 122°36'0 0.0
2017-Apr-21 10:00N 48°31' W 122°36'0 0.0
2017-Apr-21 09:30N 48°31' W 122°36'0 0.0
2017-Apr-21 09:00N 48°31' W 122°36'0 0.0
2017-Apr-21 08:30N 48°31' W 122°36'0 0.0
2017-Apr-21 07:48N 48°31' W 122°36'0 0.0
2017-Apr-21 07:24N 48°31' W 122°36'0 0.0
2017-Apr-21 07:00N 48°31' W 122°36'0 0.0
2017-Apr-21 06:30N 48°31' W 122°36'0 0.0
2017-Apr-21 06:00N 48°31' W 122°36'0 0.0
2017-Apr-21 05:30N 48°31' W 122°36'0 0.1
2017-Apr-21 04:54N 48°31' W 122°36'1 2.0
2017-Apr-21 04:30N 48°31' W 122°35'5 9.3
2017-Apr-21 04:00N 48°36' W 122°34'5 9.9
2017-Apr-21 03:30N 48°41' W 122°33'4 8.9
2017-Apr-21 03:00N 48°45' W 122°30'0 0.1
2017-Apr-21 02:28N 48°45' W 122°30'0 0.0
2017-Apr-21 01:52N 48°45' W 122°30'0 0.0
2017-Apr-21 01:28N 48°45' W 122°30'0 0.0
2017-Apr-21 00:58N 48°45' W 122°30'0 0.0
2017-Apr-21 00:25N 48°45' W 122°30'0 0.0
2017-Apr-20 23:58N 48°45' W 122°30'0 0.0
2017-Apr-20 23:28N 48°45' W 122°30'0 0.0
2017-Apr-20 22:55N 48°45' W 122°30'0 0.0
2017-Apr-20 22:28N 48°45' W 122°30'0 0.0
2017-Apr-20 21:55N 48°45' W 122°30'0 0.0
2017-Apr-20 21:28N 48°45' W 122°30'0 0.0
2017-Apr-20 21:00N 48°45' W 122°30'0 0.0
2017-Apr-20 20:30N 48°45' W 122°30'0 0.0
2017-Apr-20 20:00N 48°45' W 122°30'0 0.0
2017-Apr-20 19:30N 48°45' W 122°30'4 7.7
2017-Apr-20 19:00N 48°42' W 122°33'511.0
2017-Apr-20 18:30N 48°36' W 122°35'5 9.7
2017-Apr-20 18:01N 48°31' W 122°35'1 1.9
2017-Apr-20 17:25N 48°31' W 122°37'0 0.0
2017-Apr-20 16:55N 48°31' W 122°37'0 0.0
2017-Apr-20 16:25N 48°31' W 122°37'0 0.0
2017-Apr-20 15:55N 48°31' W 122°37'0 0.0
2017-Apr-20 15:25N 48°31' W 122°37'0 0.0
2017-Apr-20 14:55N 48°31' W 122°37'0 0.3
2017-Apr-20 14:00N 48°31' W 122°37'4 8.6
2017-Apr-20 13:30N 48°30' W 122°43'510.2
2017-Apr-20 13:00N 48°25' W 122°47'510.4
2017-Apr-20 12:30N 48°22' W 122°53'610.5
2017-Apr-20 11:57N 48°19' W 123°00'410.1
2017-Apr-20 11:30N 48°17' W 123°06'611.7
2017-Apr-20 10:57N 48°20' W 122°58'613.2
2017-Apr-20 10:31N 48°24' W 122°51'611.6
2017-Apr-20 10:00N 48°28' W 122°45'4 8.7
2017-Apr-20 09:30N 48°31' W 122°41'3 6.6
2017-Apr-20 09:00N 48°32' W 122°36'1 2.8
2017-Apr-20 08:30N 48°30' W 122°34'0 0.6
2017-Apr-20 08:00N 48°31' W 122°35'0 0.0
2017-Apr-20 07:30N 48°31' W 122°35'0 0.5
2017-Apr-20 07:00N 48°31' W 122°35'1 2.3
2017-Apr-20 06:30N 48°31' W 122°34'2 3.6
2017-Apr-20 06:00N 48°31' W 122°37'0 0.0
2017-Apr-20 05:21N 48°31' W 122°37'0 0.0
2017-Apr-20 04:57N 48°31' W 122°37'0 0.0
2017-Apr-20 04:27N 48°31' W 122°37'0 0.0
2017-Apr-20 03:57N 48°31' W 122°37'0 0.0
2017-Apr-20 03:27N 48°31' W 122°37'0 0.0
2017-Apr-20 02:57N 48°31' W 122°37'0 0.0
2017-Apr-20 02:27N 48°31' W 122°37'0 0.0
2017-Apr-20 01:51N 48°31' W 122°37'0 0.0
2017-Apr-20 01:27N 48°31' W 122°37'0 0.0
2017-Apr-20 00:57N 48°31' W 122°37'0 0.0
2017-Apr-20 00:27N 48°31' W 122°37'0 0.0
2017-Apr-19 23:57N 48°31' W 122°37'0 0.0
2017-Apr-19 23:27N 48°31' W 122°37'0 0.0
2017-Apr-19 23:00N 48°31' W 122°37'0 0.4
2017-Apr-19 22:30N 48°31' W 122°37'0 0.2
2017-Apr-19 22:00N 48°31' W 122°37'0 0.9
2017-Apr-19 21:30N 48°31' W 122°36'0 0.3
2017-Apr-19 21:00N 48°31' W 122°37'0 0.0
2017-Apr-19 20:30N 48°31' W 122°37'0 0.0
2017-Apr-19 20:00N 48°31' W 122°37'0 0.0
2017-Apr-19 19:30N 48°31' W 122°37'0 0.0
2017-Apr-19 19:00N 48°31' W 122°37'0 0.0
2017-Apr-19 18:30N 48°31' W 122°37'0 0.0
2017-Apr-19 18:00N 48°31' W 122°37'0 0.4
2017-Apr-19 17:30N 48°31' W 122°37'0 0.4
2017-Apr-19 16:59N 48°31' W 122°37'0 0.0
2017-Apr-19 16:29N 48°31' W 122°37'0 0.0
2017-Apr-19 15:59N 48°31' W 122°37'0 0.0
2017-Apr-19 15:29N 48°31' W 122°37'0 0.0
2017-Apr-19 14:59N 48°31' W 122°37'0 0.0
2017-Apr-19 14:29N 48°31' W 122°37'0 0.0
2017-Apr-19 13:23N 48°31' W 122°37'0 0.0
2017-Apr-19 12:59N 48°31' W 122°37'0 0.0
2017-Apr-19 12:29N 48°31' W 122°37'0 0.0
2017-Apr-19 11:59N 48°31' W 122°37'0 0.0
2017-Apr-19 11:29N 48°31' W 122°37'0 0.0
2017-Apr-19 10:47N 48°31' W 122°37'0 0.0
2017-Apr-19 10:29N 48°31' W 122°37'0 0.0
2017-Apr-19 09:59N 48°31' W 122°37'0 0.0
2017-Apr-19 09:23N 48°31' W 122°37'0 0.0
2017-Apr-19 08:59N 48°31' W 122°37'0 0.0
2017-Apr-19 08:29N 48°31' W 122°37'0 0.0
2017-Apr-19 07:59N 48°31' W 122°37'0 0.0
2017-Apr-19 07:29N 48°31' W 122°37'0 0.0
2017-Apr-19 06:47N 48°31' W 122°37'0 0.0
2017-Apr-19 06:29N 48°31' W 122°37'0 0.0
2017-Apr-19 05:41N 48°31' W 122°37'0 0.0
2017-Apr-19 05:29N 48°31' W 122°37'0 0.0
2017-Apr-19 04:59N 48°31' W 122°37'0 0.0
2017-Apr-19 04:29N 48°31' W 122°37'0 0.0
2017-Apr-19 03:59N 48°31' W 122°37'0 0.0
2017-Apr-19 03:29N 48°31' W 122°37'0 0.0
2017-Apr-19 03:00N 48°31' W 122°37'0 0.0
2017-Apr-19 02:30N 48°31' W 122°37'0 0.2
2017-Apr-19 02:00N 48°31' W 122°37'2 3.3
2017-Apr-19 01:30N 48°31' W 122°34'0 1.0
2017-Apr-19 01:00N 48°31' W 122°35'0 0.1
2017-Apr-19 00:30N 48°31' W 122°35'1 2.5
2017-Apr-19 00:00N 48°31' W 122°36'0 0.8
2017-Apr-18 23:30N 48°31' W 122°37'0 0.1
2017-Apr-18 22:59N 48°31' W 122°37'0 0.4
2017-Apr-18 22:16N 48°31' W 122°37'0 0.0
2017-Apr-18 21:58N 48°31' W 122°37'0 0.0
2017-Apr-18 21:28N 48°31' W 122°37'0 0.0
2017-Apr-18 20:58N 48°31' W 122°37'0 0.0
2017-Apr-18 08:40N 48°31' W 122°37'0 0.0
2017-Apr-18 08:29N 48°31' W 122°37'1 2.0
2017-Apr-18 07:44N 48°31' W 122°35'0 0.5
2017-Apr-18 07:27N 48°31' W 122°35'1 1.7
2017-Apr-18 07:00N 48°31' W 122°34'2 4.5
2017-Apr-18 06:30N 48°34' W 122°35'4 5.6
2017-Apr-18 05:51N 48°31' W 122°39'0 0.3
2017-Apr-18 05:06N 48°31' W 122°39'0 0.0
2017-Apr-18 04:45N 48°31' W 122°39'0 0.0
2017-Apr-18 04:24N 48°31' W 122°39'0 0.0
2017-Apr-18 03:51N 48°31' W 122°39'0 0.0
2017-Apr-18 03:30N 48°31' W 122°39'0 0.0
2017-Apr-18 02:54N 48°31' W 122°39'2 4.1
2017-Apr-18 02:30N 48°31' W 122°41'611.6
2017-Apr-18 02:00N 48°25' W 122°44'1310.5
2017-Apr-18 00:44N 48°13' W 122°47'1610.3
2017-Apr-17 23:14N 47°59' W 122°35'211.0
2017-Apr-17 23:00N 47°57' W 122°33'510.8
2017-Apr-17 22:31N 47°53' W 122°28'611.3
2017-Apr-17 22:00N 47°47' W 122°26'611.1
2017-Apr-17 21:31N 47°42' W 122°26'5 9.9
2017-Apr-17 21:00N 47°37' W 122°24'3 6.2
2017-Apr-17 20:31N 47°35' W 122°21'1 1.0
2017-Apr-17 20:01N 47°36' W 122°21'1 1.9
2017-Apr-17 19:30N 47°36' W 122°22'1 1.8
2017-Apr-17 19:00N 47°36' W 122°21'0 0.8
2017-Apr-17 18:30N 47°35' W 122°21'0 0.2
2017-Apr-17 18:00N 47°35' W 122°21'0 0.5
2017-Apr-17 17:30N 47°36' W 122°21'1 1.5
2017-Apr-17 17:00N 47°35' W 122°21'0 0.1
2017-Apr-17 16:29N 47°35' W 122°21'0 0.1
2017-Apr-17 15:59N 47°35' W 122°21'0 0.0
2017-Apr-17 15:28N 47°35' W 122°21'0 0.0
2017-Apr-17 14:58N 47°35' W 122°21'0 0.4
2017-Apr-17 14:00N 47°35' W 122°21'2 3.3
2017-Apr-17 13:30N 47°37' W 122°22'0 1.0
2017-Apr-17 13:00N 47°37' W 122°22'1 1.7
2017-Apr-17 12:28N 47°38' W 122°23'0 0.0
2017-Apr-17 11:58N 47°38' W 122°23'0 0.0
2017-Apr-17 11:29N 47°38' W 122°23'0 0.0
2017-Apr-17 10:58N 47°38' W 122°23'0 0.0
2017-Apr-17 10:29N 47°38' W 122°23'0 0.0
2017-Apr-17 09:58N 47°38' W 122°23'0 0.0
2017-Apr-17 09:30N 47°38' W 122°23'3 6.2
2017-Apr-17 09:00N 47°39' W 122°27'511.0
2017-Apr-17 08:31N 47°44' W 122°27'611.4
2017-Apr-17 07:59N 47°50' W 122°28'2310.3
2017-Apr-17 05:48N 48°10' W 122°45'311.2
2017-Apr-17 05:30N 48°12' W 122°49'1011.3
2017-Apr-17 04:39N 48°22' W 122°46'210.7
2017-Apr-17 04:28N 48°24' W 122°45'510.6
2017-Apr-17 04:01N 48°28' W 122°45'5 9.3
2017-Apr-17 03:30N 48°33' W 122°45'4 8.4
2017-Apr-17 03:00N 48°37' W 122°45'5 9.2
2017-Apr-17 02:30N 48°42' W 122°44'510.1
2017-Apr-17 01:59N 48°47' W 122°44'2 1.8
2017-Apr-17 00:47N 48°49' W 122°43'0 1.7
2017-Apr-17 00:29N 48°49' W 122°44'2 4.2
2017-Apr-16 23:57N 48°47' W 122°46'4 8.1
2017-Apr-16 23:30N 48°44' W 122°44'5 9.6
2017-Apr-16 23:00N 48°39' W 122°43'4 8.2
2017-Apr-16 22:31N 48°35' W 122°45'4 7.6
2017-Apr-16 22:01N 48°32' W 122°43'4 8.9
2017-Apr-16 21:30N 48°31' W 122°37'0 0.2
2017-Apr-16 20:58N 48°31' W 122°37'0 0.0
2017-Apr-16 20:28N 48°31' W 122°37'0 0.0
2017-Apr-16 19:58N 48°31' W 122°37'0 0.0
2017-Apr-16 19:28N 48°31' W 122°37'0 0.0
2017-Apr-16 18:52N 48°31' W 122°37'0 0.0
2017-Apr-16 18:28N 48°31' W 122°37'0 0.0
2017-Apr-16 17:58N 48°31' W 122°37'0 0.0
2017-Apr-16 17:28N 48°31' W 122°37'0 0.0
2017-Apr-16 16:58N 48°31' W 122°37'0 0.0
2017-Apr-16 16:28N 48°31' W 122°37'0 0.0
2017-Apr-16 15:58N 48°31' W 122°37'0 0.0
2017-Apr-16 15:28N 48°31' W 122°37'0 0.0
2017-Apr-16 14:58N 48°31' W 122°37'0 0.0
2017-Apr-16 14:22N 48°31' W 122°37'0 0.0
2017-Apr-16 13:28N 48°31' W 122°37'0 0.0
2017-Apr-16 12:52N 48°31' W 122°37'0 0.0
2017-Apr-16 12:28N 48°31' W 122°37'0 0.0
2017-Apr-16 11:58N 48°31' W 122°37'0 0.0
2017-Apr-16 11:28N 48°31' W 122°37'0 0.0
2017-Apr-16 10:58N 48°31' W 122°37'0 0.0
2017-Apr-16 10:30N 48°31' W 122°37'0 0.0
2017-Apr-16 10:00N 48°31' W 122°37'0 0.0
2017-Apr-16 09:30N 48°31' W 122°37'0 0.0
2017-Apr-16 09:00N 48°31' W 122°37'0 0.0
2017-Apr-16 08:30N 48°31' W 122°37'0 0.0
2017-Apr-16 08:00N 48°31' W 122°37'0 0.0
2017-Apr-16 07:30N 48°31' W 122°37'0 0.0
2017-Apr-16 07:00N 48°31' W 122°37'0 0.0
2017-Apr-16 06:30N 48°31' W 122°37'0 0.0
2017-Apr-16 06:00N 48°31' W 122°37'1 2.6
2017-Apr-16 05:30N 48°31' W 122°35'0 0.3
2017-Apr-16 05:00N 48°31' W 122°35'0 0.5
2017-Apr-16 04:30N 48°31' W 122°35'1 2.4
2017-Apr-16 04:00N 48°32' W 122°36'4 8.7
2017-Apr-16 03:30N 48°30' W 122°43'711.8
2017-Apr-16 02:55N 48°23' W 122°44'24 8.9
2017-Apr-16 00:15N 48°00' W 122°36'2 9.4
2017-Apr-16 00:00N 47°58' W 122°34'5 9.7
2017-Apr-15 23:31N 47°55' W 122°29'510.8
2017-Apr-15 23:00N 47°50' W 122°27'510.8
2017-Apr-15 22:30N 47°45' W 122°26'510.7
2017-Apr-15 22:01N 47°39' W 122°26'3 5.8
2017-Apr-15 21:31N 47°38' W 122°23'0 0.0
2017-Apr-15 21:01N 47°38' W 122°23'2 3.1
2017-Apr-15 20:30N 47°37' W 122°21'2 3.8
2017-Apr-15 20:00N 47°35' W 122°21'0 0.2
2017-Apr-15 19:30N 47°35' W 122°21'0 0.0
2017-Apr-15 19:00N 47°35' W 122°21'0 0.1
2017-Apr-15 18:30N 47°35' W 122°21'2 3.5
2017-Apr-15 18:01N 47°37' W 122°21'2 3.1
2017-Apr-15 17:29N 47°38' W 122°23'0 0.0
2017-Apr-15 16:59N 47°38' W 122°23'0 0.0
2017-Apr-15 16:29N 47°38' W 122°23'0 0.0
2017-Apr-15 15:59N 47°38' W 122°23'0 0.0
2017-Apr-15 15:29N 47°38' W 122°23'0 0.0
2017-Apr-15 15:00N 47°38' W 122°23'0 0.0
2017-Apr-15 14:30N 47°38' W 122°23'0 0.0
2017-Apr-15 13:30N 47°38' W 122°23'0 0.0
2017-Apr-15 12:59N 47°38' W 122°23'0 0.0
2017-Apr-15 12:30N 47°38' W 122°23'0 0.0
2017-Apr-15 11:57N 47°38' W 122°23'0 0.0
2017-Apr-15 11:29N 47°38' W 122°23'0 0.0
2017-Apr-15 11:00N 47°38' W 122°23'4 8.8
2017-Apr-15 10:31N 47°34' W 122°26'510.9
2017-Apr-15 10:01N 47°29' W 122°24'510.8
2017-Apr-15 09:30N 47°24' W 122°21'510.1
2017-Apr-15 09:00N 47°20' W 122°26'  

Dump ship's entire track history